Denver International Airport
KDEN : rendu visible

Aérodrome :











RETROUVEZ-NOUS SUR...

 
LOGIN :

S'inscrire | Disclaimer

   EN    FR    IT 

 









Légende :    VFR   VFR Marginal   IFR   IFR Intensif   IFR Très Intensif
Visi : 
Plafond : 
>= 8 km
>= 3000ft
5 à 8 km
1000 à 3000 ft
1500m à 5 km
500 à 1000 ft
800 à 1500m
200 à 500 ft
< 800m
< 200 ft
Symboles :   Orages  Brouillard  Fortes neiges  Fortes précipitations  Vent > 20 kt






- Altitude de l'aérodrome : 5431 ft
- Code IATA : DEN


KDEN - Denver International

DERNIER METAR :
  • 081853Z 06005KT 10SM SCT100 18/M04 A3007 RMK AO2 SLP131 T01831039

METARs EXPIRÉS :
  • 081753Z 36007KT 10SM FEW100 18/M03 A3010 RMK AO2 SLP141 T01781028 10178 20039 58001
  • 081653Z VRB03KT 10SM FEW100 FEW220 17/M05 A3011 RMK AO2 SLP137 T01721050

TAF KDEN
Valide du 08 à 18h jusqu'au 10 à 00h UTC


081739Z 0818/0924 03011KT P6SM FEW100 SCT220
FM082100 35012G20KT P6SM FEW100 SCT220
FM090200 29007KT P6SM SCT080 SCT120 SCT200
FM090500 04012KT P6SM FEW050 BKN080
FM091000 03009KT P6SM SCT025 BKN040
FM092100 06008KT P6SM SCT050 BKN090



MET'MAP, la Météo Aéronautique d'un coup d'oeil ! - Copyright ORBIFLY Décembre 2007 - Disclaimer

ORBIFLY MET'MAP TEAM :

Programmation & Développement : Alexandra Zaïnal
Sur une idée originale de : Baudouin d'Aumeries
Assistance à la programmation : Marc-Olivier Méhu
Soutien technique & logistique : Manuel Goepfert

Contact : metmap@orbifly.com




SOURCES & CREDITS :

   NOAA       Earth
Advisory